Time,TemperatureF,DewpointF,PressureIn,WindDirection,WindDirectionDegrees,WindSpeedMPH,WindSpeedGustMPH,Humidity,HourlyPrecipIn,Conditions,Clouds,dailyrainin,SoftwareType,DateUTC
2014-12-22 00:02:00,40.6,37.6,30.38,East,95,0.0,3.0,89,0.00,,,0.00,meteohub,2014-12-22 05:02:00,
2014-12-22 00:07:00,40.8,37.8,30.38,East,95,1.0,3.0,89,0.00,,,0.00,meteohub,2014-12-22 05:07:00,
2014-12-22 00:12:00,40.8,37.8,30.38,East,95,1.0,3.0,89,0.00,,,0.00,meteohub,2014-12-22 05:12:00,
2014-12-22 00:17:00,40.8,37.8,30.38,East,95,0.0,3.0,89,0.00,,,0.00,meteohub,2014-12-22 05:17:00,
2014-12-22 00:22:00,40.8,37.8,30.37,ESE,102,1.0,3.0,89,0.00,,,0.00,meteohub,2014-12-22 05:22:00,
2014-12-22 00:27:00,40.8,37.8,30.37,ENE,65,3.0,3.0,89,0.00,,,0.00,meteohub,2014-12-22 05:27:00,
2014-12-22 00:32:00,40.8,37.8,30.37,ENE,65,0.0,3.0,89,0.00,,,0.00,meteohub,2014-12-22 05:32:00,
2014-12-22 00:37:00,40.8,37.8,30.37,ENE,69,2.0,3.0,89,0.00,,,0.00,meteohub,2014-12-22 05:37:00,
2014-12-22 00:42:00,40.8,37.8,30.37,ENE,69,0.0,3.0,89,0.00,,,0.00,meteohub,2014-12-22 05:42:00,
2014-12-22 00:47:00,40.8,37.8,30.37,ENE,69,0.0,3.0,89,0.00,,,0.00,meteohub,2014-12-22 05:47:00,
2014-12-22 00:52:00,40.8,37.8,30.37,ENE,69,0.0,3.0,89,0.00,,,0.00,meteohub,2014-12-22 05:52:00,
2014-12-22 00:57:00,40.8,37.8,30.37,ENE,69,0.0,2.0,89,0.00,,,0.00,meteohub,2014-12-22 05:57:00,
2014-12-22 01:02:00,40.8,37.8,30.38,ENE,69,0.0,2.0,89,0.00,,,0.00,meteohub,2014-12-22 06:02:00,
2014-12-22 01:07:00,40.6,37.6,30.38,ENE,69,0.0,2.0,89,0.00,,,0.00,meteohub,2014-12-22 06:07:00,
2014-12-22 01:12:00,40.6,37.6,30.38,ENE,69,0.0,2.0,89,0.00,,,0.00,meteohub,2014-12-22 06:12:00,
2014-12-22 01:17:00,40.6,37.6,30.38,ENE,69,0.0,1.0,89,0.00,,,0.00,meteohub,2014-12-22 06:17:00,
2014-12-22 01:22:00,40.5,37.4,30.38,ENE,69,0.0,1.0,89,0.00,,,0.00,meteohub,2014-12-22 06:22:00,
2014-12-22 01:27:00,40.6,37.6,30.38,ENE,69,0.0,2.0,89,0.00,,,0.00,meteohub,2014-12-22 06:27:00,
2014-12-22 01:32:00,40.6,37.6,30.38,ENE,70,0.0,2.0,89,0.00,,,0.00,meteohub,2014-12-22 06:32:00,
2014-12-22 01:37:00,40.6,37.6,30.38,ENE,70,0.0,2.0,89,0.00,,,0.00,meteohub,2014-12-22 06:37:00,
2014-12-22 01:42:00,40.6,37.6,30.38,ENE,70,0.0,2.0,89,0.00,,,0.00,meteohub,2014-12-22 06:42:00,
2014-12-22 01:47:00,40.6,37.6,30.39,ENE,70,0.0,2.0,89,0.00,,,0.00,meteohub,2014-12-22 06:47:00,
2014-12-22 01:52:00,40.6,37.6,30.39,ENE,70,0.0,1.0,89,0.00,,,0.00,meteohub,2014-12-22 06:52:00,
2014-12-22 01:57:00,40.6,37.9,30.39,ENE,70,0.0,1.0,90,0.00,,,0.00,meteohub,2014-12-22 06:57:00,
2014-12-22 02:02:00,40.6,37.9,30.39,ENE,70,0.0,1.0,90,0.00,,,0.00,meteohub,2014-12-22 07:02:00,
2014-12-22 02:07:00,40.6,37.9,30.39,ENE,70,0.0,2.0,90,0.00,,,0.00,meteohub,2014-12-22 07:07:00,
2014-12-22 02:12:00,40.6,37.6,30.39,ENE,71,0.0,2.0,89,0.00,,,0.00,meteohub,2014-12-22 07:12:00,
2014-12-22 02:17:00,40.8,38.1,30.39,ENE,71,0.0,2.0,90,0.00,,,0.00,meteohub,2014-12-22 07:17:00,
2014-12-22 02:22:00,40.8,38.1,30.39,ENE,71,0.0,2.0,90,0.00,,,0.00,meteohub,2014-12-22 07:22:00,
2014-12-22 02:27:00,40.8,38.1,30.39,ENE,71,1.0,2.0,90,0.00,,,0.00,meteohub,2014-12-22 07:27:00,
2014-12-22 02:32:00,40.6,37.9,30.39,ENE,71,0.0,2.0,90,0.00,,,0.00,meteohub,2014-12-22 07:32:00,
2014-12-22 02:37:00,40.6,37.9,30.39,ENE,71,0.0,2.0,90,0.00,,,0.00,meteohub,2014-12-22 07:37:00,
2014-12-22 02:42:00,40.5,37.8,30.39,ENE,71,0.0,2.0,90,0.00,,,0.00,meteohub,2014-12-22 07:42:00,
2014-12-22 02:47:00,40.5,37.8,30.39,ENE,71,0.0,0.0,90,0.00,,,0.00,meteohub,2014-12-22 07:47:00,
2014-12-22 02:52:00,40.5,37.8,30.39,ENE,71,0.0,0.0,90,0.00,,,0.00,meteohub,2014-12-22 07:52:00,
2014-12-22 02:57:00,40.3,37.6,30.38,ENE,71,0.0,0.0,90,0.00,,,0.00,meteohub,2014-12-22 07:57:00,
2014-12-22 03:02:00,40.3,37.6,30.38,ENE,71,1.0,1.0,90,0.00,,,0.00,meteohub,2014-12-22 08:02:00,
2014-12-22 03:07:00,39.9,37.2,30.38,ENE,71,0.0,2.0,90,0.00,,,0.00,meteohub,2014-12-22 08:07:00,
2014-12-22 03:12:00,39.9,37.2,30.38,ENE,71,0.0,3.0,90,0.00,,,0.00,meteohub,2014-12-22 08:12:00,
2014-12-22 03:17:00,39.9,37.2,30.38,ENE,71,0.0,3.0,90,0.00,,,0.00,meteohub,2014-12-22 08:17:00,
2014-12-22 03:22:00,40.1,37.4,30.38,ENE,71,1.0,3.0,90,0.00,,,0.00,meteohub,2014-12-22 08:22:00,
2014-12-22 03:27:00,40.5,37.8,30.38,East,89,2.0,3.0,90,0.00,,,0.00,meteohub,2014-12-22 08:27:00,
2014-12-22 03:32:00,40.6,38.3,30.38,East,85,0.0,5.0,91,0.00,,,0.00,meteohub,2014-12-22 08:32:00,
2014-12-22 03:37:00,40.6,37.9,30.38,East,85,1.0,5.0,90,0.00,,,0.00,meteohub,2014-12-22 08:37:00,
2014-12-22 03:42:00,40.6,38.3,30.38,East,85,0.0,3.0,91,0.00,,,0.00,meteohub,2014-12-22 08:42:00,
2014-12-22 03:47:00,40.6,38.3,30.38,East,85,1.0,3.0,91,0.00,,,0.00,meteohub,2014-12-22 08:47:00,
2014-12-22 03:52:00,40.6,38.3,30.37,East,86,0.0,3.0,91,0.00,,,0.00,meteohub,2014-12-22 08:52:00,
2014-12-22 03:57:00,40.6,38.3,30.37,East,86,1.0,5.0,91,0.00,,,0.00,meteohub,2014-12-22 08:57:00,
2014-12-22 04:02:00,40.5,37.8,30.37,East,86,0.0,5.0,90,0.00,,,0.00,meteohub,2014-12-22 09:02:00,
2014-12-22 04:07:00,40.3,37.6,30.37,East,86,0.0,5.0,90,0.00,,,0.00,meteohub,2014-12-22 09:07:00,
2014-12-22 04:12:00,40.1,37.4,30.37,East,86,0.0,2.0,90,0.00,,,0.00,meteohub,2014-12-22 09:12:00,
2014-12-22 04:17:00,39.9,37.2,30.37,East,86,0.0,2.0,90,0.00,,,0.00,meteohub,2014-12-22 09:17:00,
2014-12-22 04:22:00,39.7,37.0,30.37,East,86,0.0,1.0,90,0.00,,,0.00,meteohub,2014-12-22 09:22:00,
2014-12-22 04:27:00,39.6,36.9,30.37,East,86,0.0,1.0,90,0.00,,,0.00,meteohub,2014-12-22 09:27:00,
2014-12-22 04:32:00,39.0,36.3,30.37,East,86,0.0,1.0,90,0.00,,,0.00,meteohub,2014-12-22 09:32:00,
2014-12-22 04:37:00,38.8,36.1,30.37,East,86,0.0,0.0,90,0.00,,,0.00,meteohub,2014-12-22 09:37:00,
2014-12-22 04:42:00,38.7,36.0,30.38,East,86,0.0,0.0,90,0.00,,,0.00,meteohub,2014-12-22 09:42:00,
2014-12-22 04:47:00,38.5,35.8,30.38,East,86,0.0,0.0,90,0.00,,,0.00,meteohub,2014-12-22 09:47:00,
2014-12-22 04:52:00,38.1,35.4,30.38,East,86,0.0,0.0,90,0.00,,,0.00,meteohub,2014-12-22 09:52:00,
2014-12-22 04:57:00,37.9,35.2,30.38,East,86,0.0,1.0,90,0.00,,,0.00,meteohub,2014-12-22 09:57:00,
2014-12-22 05:02:00,37.8,35.4,30.38,East,86,0.0,1.0,91,0.00,,,0.00,meteohub,2014-12-22 10:02:00,
2014-12-22 05:07:00,37.6,35.2,30.38,East,86,0.0,1.0,91,0.00,,,0.00,meteohub,2014-12-22 10:07:00,
2014-12-22 05:12:00,37.2,34.9,30.38,East,86,0.0,0.0,91,0.00,,,0.00,meteohub,2014-12-22 10:12:00,
2014-12-22 05:17:00,37.0,34.7,30.39,East,86,0.0,0.0,91,0.00,,,0.00,meteohub,2014-12-22 10:17:00,
2014-12-22 05:22:00,36.9,34.5,30.39,East,86,0.0,0.0,91,0.00,,,0.00,meteohub,2014-12-22 10:22:00,
2014-12-22 05:27:00,36.9,34.5,30.39,East,86,0.0,0.0,91,0.00,,,0.00,meteohub,2014-12-22 10:27:00,
2014-12-22 05:32:00,36.7,34.3,30.39,East,86,0.0,0.0,91,0.00,,,0.00,meteohub,2014-12-22 10:32:00,
2014-12-22 05:37:00,36.3,34.0,30.39,East,86,0.0,0.0,91,0.00,,,0.00,meteohub,2014-12-22 10:37:00,
2014-12-22 05:42:00,36.1,33.8,30.39,East,86,0.0,0.0,91,0.00,,,0.00,meteohub,2014-12-22 10:42:00,
2014-12-22 05:47:00,36.0,33.6,30.40,East,86,0.0,0.0,91,0.00,,,0.00,meteohub,2014-12-22 10:47:00,
2014-12-22 05:52:00,35.6,33.3,30.40,East,86,0.0,1.0,91,0.00,,,0.00,meteohub,2014-12-22 10:52:00,
2014-12-22 05:57:00,35.4,33.1,30.40,East,86,0.0,1.0,91,0.00,,,0.00,meteohub,2014-12-22 10:57:00,
2014-12-22 06:02:00,35.1,32.7,30.40,East,86,0.0,1.0,91,0.00,,,0.00,meteohub,2014-12-22 11:02:00,
2014-12-22 06:07:00,34.9,32.5,30.40,East,86,0.0,0.0,91,0.00,,,0.00,meteohub,2014-12-22 11:07:00,
2014-12-22 06:12:00,34.7,32.4,30.40,East,86,0.0,0.0,91,0.00,,,0.00,meteohub,2014-12-22 11:12:00,
2014-12-22 06:17:00,34.5,32.2,30.40,East,86,0.0,0.0,91,0.00,,,0.00,meteohub,2014-12-22 11:17:00,
2014-12-22 06:22:00,34.3,32.0,30.40,East,86,0.0,0.0,91,0.00,,,0.00,meteohub,2014-12-22 11:22:00,
2014-12-22 06:27:00,34.3,32.0,30.41,East,86,0.0,0.0,91,0.00,,,0.00,meteohub,2014-12-22 11:27:00,
2014-12-22 06:32:00,34.2,31.8,30.41,East,86,0.0,0.0,91,0.00,,,0.00,meteohub,2014-12-22 11:32:00,
2014-12-22 06:37:00,34.2,31.8,30.41,East,86,0.0,0.0,91,0.00,,,0.00,meteohub,2014-12-22 11:37:00,
2014-12-22 06:42:00,34.0,31.6,30.41,East,86,0.0,0.0,91,0.00,,,0.00,meteohub,2014-12-22 11:42:00,
2014-12-22 06:47:00,34.0,31.6,30.41,East,86,0.0,0.0,91,0.00,,,0.00,meteohub,2014-12-22 11:47:00,
2014-12-22 06:52:00,34.2,31.8,30.41,East,86,0.0,0.0,91,0.00,,,0.00,meteohub,2014-12-22 11:52:00,
2014-12-22 06:57:00,34.0,31.6,30.41,East,86,0.0,0.0,91,0.00,,,0.00,meteohub,2014-12-22 11:57:00,
2014-12-22 07:02:00,34.2,31.8,30.41,East,86,0.0,0.0,91,0.00,,,0.00,meteohub,2014-12-22 12:02:00,
2014-12-22 07:07:00,34.2,32.0,30.41,East,86,0.0,0.0,92,0.00,,,0.00,meteohub,2014-12-22 12:07:00,
2014-12-22 07:12:00,34.5,32.2,30.42,East,86,0.0,0.0,91,0.00,,,0.00,meteohub,2014-12-22 12:12:00,
2014-12-22 07:17:00,35.4,33.3,30.42,East,86,0.0,0.0,92,0.00,,,0.00,meteohub,2014-12-22 12:17:00,
2014-12-22 07:22:00,36.1,34.0,30.41,East,86,0.0,1.0,92,0.00,,,0.00,meteohub,2014-12-22 12:22:00,
2014-12-22 07:27:00,36.5,34.3,30.41,East,86,0.0,1.0,92,0.00,,,0.00,meteohub,2014-12-22 12:27:00,
2014-12-22 07:32:00,36.7,34.5,30.41,East,86,0.0,1.0,92,0.00,,,0.00,meteohub,2014-12-22 12:32:00,
2014-12-22 07:37:00,36.7,34.3,30.41,East,86,0.0,1.0,91,0.00,,,0.00,meteohub,2014-12-22 12:37:00,
2014-12-22 07:42:00,36.7,34.3,30.41,East,86,0.0,1.0,91,0.00,,,0.00,meteohub,2014-12-22 12:42:00,
2014-12-22 07:47:00,36.9,34.7,30.41,East,86,1.0,0.0,92,0.00,,,0.00,meteohub,2014-12-22 12:47:00,
2014-12-22 07:52:00,37.0,34.9,30.41,East,86,0.0,1.0,92,0.00,,,0.00,meteohub,2014-12-22 12:52:00,
2014-12-22 07:57:00,37.4,35.2,30.41,East,86,1.0,1.0,92,0.00,,,0.00,meteohub,2014-12-22 12:57:00,
2014-12-22 08:02:00,38.1,36.0,30.41,East,86,0.0,1.0,92,0.00,,,0.00,meteohub,2014-12-22 13:02:00,
2014-12-22 08:07:00,38.5,36.3,30.41,East,86,0.0,1.0,92,0.00,,,0.00,meteohub,2014-12-22 13:07:00,
2014-12-22 08:12:00,38.8,36.7,30.42,East,86,0.0,1.0,92,0.00,,,0.00,meteohub,2014-12-22 13:12:00,
2014-12-22 08:17:00,39.4,37.2,30.41,East,86,0.0,2.0,92,0.00,,,0.00,meteohub,2014-12-22 13:17:00,
2014-12-22 08:22:00,39.7,37.6,30.42,East,86,0.0,2.0,92,0.00,,,0.00,meteohub,2014-12-22 13:22:00,
2014-12-22 08:27:00,39.9,37.8,30.42,East,86,0.0,3.0,92,0.00,,,0.00,meteohub,2014-12-22 13:27:00,
2014-12-22 08:32:00,40.1,37.9,30.42,East,86,0.0,3.0,92,0.00,,,0.00,meteohub,2014-12-22 13:32:00,
2014-12-22 08:37:00,40.5,38.3,30.42,East,86,1.0,3.0,92,0.00,,,0.00,meteohub,2014-12-22 13:37:00,
2014-12-22 08:42:00,40.6,38.5,30.42,East,94,0.0,1.0,92,0.00,,,0.00,meteohub,2014-12-22 13:42:00,
2014-12-22 08:47:00,40.8,38.7,30.41,East,93,1.0,2.0,92,0.00,,,0.00,meteohub,2014-12-22 13:47:00,
2014-12-22 08:52:00,41.4,39.2,30.42,ENE,75,3.0,3.0,92,0.00,,,0.00,meteohub,2014-12-22 13:52:00,
2014-12-22 08:57:00,41.7,39.6,30.42,NE,42,0.0,4.0,92,0.00,,,0.00,meteohub,2014-12-22 13:57:00,
2014-12-22 09:02:00,41.7,39.6,30.42,WSW,248,0.0,4.0,92,0.00,,,0.00,meteohub,2014-12-22 14:02:00,
2014-12-22 09:07:00,41.7,39.6,30.43,East,98,0.0,4.0,92,0.00,,,0.00,meteohub,2014-12-22 14:07:00,
2014-12-22 09:12:00,41.9,39.7,30.43,East,98,2.0,4.0,92,0.00,,,0.00,meteohub,2014-12-22 14:12:00,
2014-12-22 09:17:00,42.1,39.9,30.43,ENE,76,0.0,5.0,92,0.00,,,0.00,meteohub,2014-12-22 14:17:00,
2014-12-22 09:22:00,42.1,39.6,30.43,South,184,2.0,5.0,91,0.00,,,0.00,meteohub,2014-12-22 14:22:00,
2014-12-22 09:27:00,42.3,39.7,30.43,South,184,0.0,5.0,91,0.00,,,0.00,meteohub,2014-12-22 14:27:00,
2014-12-22 09:32:00,42.3,39.7,30.43,SW,236,0.0,4.0,91,0.00,,,0.00,meteohub,2014-12-22 14:32:00,
2014-12-22 09:37:00,42.3,39.7,30.43,NE,53,1.0,4.0,91,0.00,,,0.00,meteohub,2014-12-22 14:37:00,
2014-12-22 09:42:00,42.4,39.9,30.43,East,100,2.0,3.0,91,0.00,,,0.00,meteohub,2014-12-22 14:42:00,
2014-12-22 09:47:00,42.4,39.9,30.43,East,86,0.0,4.0,91,0.00,,,0.00,meteohub,2014-12-22 14:47:00,
2014-12-22 09:52:00,42.6,40.1,30.43,SSW,196,1.0,4.0,91,0.00,,,0.00,meteohub,2014-12-22 14:52:00,
2014-12-22 09:57:00,43.0,40.5,30.43,SSW,196,1.0,4.0,91,0.00,,,0.00,meteohub,2014-12-22 14:57:00,
2014-12-22 10:02:00,43.2,40.6,30.43,SE,142,0.0,3.0,91,0.00,,,0.00,meteohub,2014-12-22 15:02:00,
2014-12-22 10:07:00,43.3,40.6,30.43,ENE,65,2.0,3.0,90,0.00,,,0.00,meteohub,2014-12-22 15:07:00,
2014-12-22 10:12:00,43.5,40.8,30.43,East,94,1.0,4.0,90,0.00,,,0.00,meteohub,2014-12-22 15:12:00,
2014-12-22 10:17:00,43.7,41.0,30.43,ESE,106,0.0,6.0,90,0.00,,,0.00,meteohub,2014-12-22 15:17:00,
2014-12-22 10:22:00,44.1,41.4,30.42,ESE,105,1.0,6.0,90,0.00,,,0.00,meteohub,2014-12-22 15:22:00,
2014-12-22 10:27:00,44.1,41.0,30.42,ENE,67,0.0,6.0,89,0.00,,,0.00,meteohub,2014-12-22 15:27:00,
2014-12-22 10:32:00,44.4,41.4,30.41,East,92,2.0,5.0,89,0.00,,,0.00,meteohub,2014-12-22 15:32:00,
2014-12-22 10:37:00,44.6,41.5,30.41,East,92,0.0,5.0,89,0.00,,,0.00,meteohub,2014-12-22 15:37:00,
2014-12-22 10:42:00,44.4,41.2,30.41,East,101,0.0,5.0,88,0.00,,,0.00,meteohub,2014-12-22 15:42:00,
2014-12-22 10:47:00,44.2,41.0,30.41,ENE,59,3.0,6.0,88,0.00,,,0.00,meteohub,2014-12-22 15:47:00,
2014-12-22 10:52:00,44.2,40.6,30.40,East,98,0.0,6.0,87,0.00,,,0.00,meteohub,2014-12-22 15:52:00,
2014-12-22 10:57:00,44.4,41.2,30.40,East,90,0.0,6.0,88,0.00,,,0.00,meteohub,2014-12-22 15:57:00,
2014-12-22 11:02:00,45.1,41.7,30.40,SW,228,3.0,6.0,88,0.00,,,0.00,meteohub,2014-12-22 16:02:00,
2014-12-22 11:07:00,45.9,42.3,30.39,WSW,254,2.0,6.0,87,0.00,,,0.00,meteohub,2014-12-22 16:07:00,
2014-12-22 11:12:00,46.0,42.1,30.39,ENE,70,1.0,5.0,86,0.00,,,0.00,meteohub,2014-12-22 16:12:00,
2014-12-22 11:17:00,45.7,41.4,30.39,SSW,213,0.0,5.0,85,0.00,,,0.00,meteohub,2014-12-22 16:17:00,
2014-12-22 11:22:00,45.7,41.4,30.38,East,81,1.0,5.0,85,0.00,,,0.00,meteohub,2014-12-22 16:22:00,
2014-12-22 11:27:00,45.7,41.4,30.38,SW,217,0.0,5.0,85,0.00,,,0.00,meteohub,2014-12-22 16:27:00,
2014-12-22 11:32:00,45.7,41.4,30.38,SW,217,0.0,4.0,85,0.00,,,0.00,meteohub,2014-12-22 16:32:00,
2014-12-22 11:37:00,45.9,41.5,30.38,East,86,3.0,4.0,85,0.00,,,0.00,meteohub,2014-12-22 16:37:00,
2014-12-22 11:42:00,46.4,42.1,30.37,South,178,1.0,6.0,85,0.00,,,0.00,meteohub,2014-12-22 16:42:00,
2014-12-22 11:47:00,46.2,41.4,30.37,East,92,3.0,6.0,83,0.00,,,0.00,meteohub,2014-12-22 16:47:00,
2014-12-22 11:52:00,46.0,41.2,30.37,ENE,71,4.0,10.0,83,0.00,,,0.00,meteohub,2014-12-22 16:52:00,
2014-12-22 11:57:00,46.4,41.5,30.37,ENE,66,1.0,10.0,83,0.00,,,0.00,meteohub,2014-12-22 16:57:00,
2014-12-22 12:02:00,46.6,41.7,30.37,East,94,5.0,10.0,83,0.00,,,0.00,meteohub,2014-12-22 17:02:00,
2014-12-22 12:07:00,46.8,40.6,30.37,SW,220,3.0,8.0,79,0.00,,,0.00,meteohub,2014-12-22 17:07:00,
2014-12-22 12:12:00,47.1,40.3,30.37,WSW,257,1.0,9.0,77,0.00,,,0.00,meteohub,2014-12-22 17:12:00,
2014-12-22 12:17:00,47.7,40.5,30.37,WSW,240,8.0,13.0,76,0.00,,,0.00,meteohub,2014-12-22 17:17:00,
2014-12-22 12:22:00,47.3,39.7,30.37,SW,229,8.0,13.0,75,0.00,,,0.00,meteohub,2014-12-22 17:22:00,
2014-12-22 12:27:00,47.7,40.5,30.37,SSW,208,7.0,13.0,76,0.00,,,0.00,meteohub,2014-12-22 17:27:00,
2014-12-22 12:32:00,47.7,39.7,30.37,SSW,211,1.0,13.0,74,0.00,,,0.00,meteohub,2014-12-22 17:32:00,
2014-12-22 12:37:00,47.7,40.1,30.38,WSW,255,3.0,13.0,75,0.00,,,0.00,meteohub,2014-12-22 17:37:00,
2014-12-22 12:42:00,48.4,40.1,30.38,SW,232,8.0,11.0,73,0.00,,,0.00,meteohub,2014-12-22 17:42:00,
2014-12-22 12:47:00,48.0,40.5,30.38,SSW,205,7.0,13.0,75,0.00,,,0.00,meteohub,2014-12-22 17:47:00,
2014-12-22 12:52:00,47.5,39.9,30.38,SW,226,7.0,14.0,75,0.00,,,0.00,meteohub,2014-12-22 17:52:00,
2014-12-22 12:57:00,46.9,39.7,30.39,WSW,255,5.0,14.0,76,0.00,,,0.00,meteohub,2014-12-22 17:57:00,
2014-12-22 13:02:00,46.6,39.7,30.39,WSW,246,6.0,14.0,77,0.00,,,0.00,meteohub,2014-12-22 18:02:00,
2014-12-22 13:07:00,46.4,39.6,30.39,SSW,194,3.0,12.0,77,0.00,,,0.00,meteohub,2014-12-22 18:07:00,
2014-12-22 13:12:00,46.2,39.4,30.39,SSW,205,2.0,12.0,77,0.00,,,0.00,meteohub,2014-12-22 18:12:00,
2014-12-22 13:17:00,46.0,39.2,30.39,SW,220,5.0,13.0,77,0.00,,,0.00,meteohub,2014-12-22 18:17:00,
2014-12-22 13:22:00,46.0,39.6,30.39,SW,230,1.0,13.0,78,0.00,,,0.00,meteohub,2014-12-22 18:22:00,
2014-12-22 13:27:00,45.9,39.0,30.39,SW,225,3.0,13.0,77,0.00,,,0.00,meteohub,2014-12-22 18:27:00,
2014-12-22 13:32:00,46.0,39.6,30.38,SW,227,7.0,11.0,78,0.00,,,0.00,meteohub,2014-12-22 18:32:00,
2014-12-22 13:37:00,46.0,39.9,30.38,WSW,244,5.0,10.0,79,0.00,,,0.00,meteohub,2014-12-22 18:37:00,
2014-12-22 13:42:00,45.9,40.1,30.37,WSW,257,7.0,12.0,80,0.00,,,0.00,meteohub,2014-12-22 18:42:00,
2014-12-22 13:47:00,45.9,40.3,30.37,SW,227,8.0,12.0,81,0.00,,,0.00,meteohub,2014-12-22 18:47:00,
2014-12-22 13:52:00,45.9,40.3,30.36,WSW,245,5.0,12.0,81,0.00,,,0.00,meteohub,2014-12-22 18:52:00,
2014-12-22 13:57:00,45.9,40.3,30.36,SSW,208,2.0,10.0,81,0.00,,,0.00,meteohub,2014-12-22 18:57:00,
2014-12-22 14:02:00,45.7,40.5,30.36,SW,233,1.0,12.0,82,0.00,,,0.00,meteohub,2014-12-22 19:02:00,
2014-12-22 14:07:00,45.7,40.5,30.36,WSW,240,1.0,12.0,82,0.00,,,0.00,meteohub,2014-12-22 19:07:00,
2014-12-22 14:12:00,45.9,40.6,30.36,SSE,162,0.0,12.0,82,0.00,,,0.00,meteohub,2014-12-22 19:12:00,
2014-12-22 14:17:00,45.9,40.6,30.36,SW,236,6.0,10.0,82,0.00,,,0.00,meteohub,2014-12-22 19:17:00,
2014-12-22 14:22:00,46.0,40.8,30.35,WSW,239,3.0,12.0,82,0.00,,,0.00,meteohub,2014-12-22 19:22:00,
2014-12-22 14:27:00,46.0,40.8,30.36,WSW,250,8.0,12.0,82,0.00,,,0.00,meteohub,2014-12-22 19:27:00,
2014-12-22 14:32:00,45.9,40.3,30.35,South,173,3.0,12.0,81,0.00,,,0.00,meteohub,2014-12-22 19:32:00,
2014-12-22 14:37:00,45.7,40.5,30.35,SSE,165,2.0,12.0,82,0.00,,,0.00,meteohub,2014-12-22 19:37:00,
2014-12-22 14:42:00,45.9,40.6,30.35,SW,227,7.0,12.0,82,0.00,,,0.00,meteohub,2014-12-22 19:42:00,
2014-12-22 14:47:00,45.5,40.3,30.35,SW,234,2.0,9.0,82,0.00,,,0.00,meteohub,2014-12-22 19:47:00,
2014-12-22 14:52:00,45.1,40.3,30.35,SW,225,3.0,10.0,83,0.00,,,0.00,meteohub,2014-12-22 19:52:00,
2014-12-22 14:57:00,45.0,40.1,30.35,ESE,118,1.0,10.0,83,0.00,,,0.00,meteohub,2014-12-22 19:57:00,
2014-12-22 15:02:00,45.0,40.1,30.35,West,268,0.0,9.0,83,0.00,,,0.00,meteohub,2014-12-22 20:02:00,
2014-12-22 15:07:00,45.0,40.1,30.35,WSW,248,1.0,7.0,83,0.00,,,0.00,meteohub,2014-12-22 20:07:00,
2014-12-22 15:12:00,45.0,40.1,30.35,SW,233,0.0,9.0,83,0.00,,,0.00,meteohub,2014-12-22 20:12:00,
2014-12-22 15:17:00,45.0,40.1,30.36,SW,226,0.0,9.0,83,0.00,,,0.00,meteohub,2014-12-22 20:17:00,
2014-12-22 15:22:00,45.0,40.1,30.36,SW,222,0.0,9.0,83,0.00,,,0.00,meteohub,2014-12-22 20:22:00,
2014-12-22 15:27:00,45.0,40.1,30.36,SW,223,2.0,7.0,83,0.00,,,0.00,meteohub,2014-12-22 20:27:00,
2014-12-22 15:32:00,45.0,39.7,30.35,WSW,242,2.0,12.0,82,0.00,,,0.00,meteohub,2014-12-22 20:32:00,
2014-12-22 15:37:00,45.0,39.7,30.36,SW,229,1.0,12.0,82,0.00,,,0.00,meteohub,2014-12-22 20:37:00,
2014-12-22 15:42:00,45.0,39.7,30.36,SW,236,6.0,12.0,82,0.00,,,0.00,meteohub,2014-12-22 20:42:00,
2014-12-22 15:47:00,44.8,39.9,30.36,SW,228,4.0,9.0,83,0.00,,,0.00,meteohub,2014-12-22 20:47:00,
2014-12-22 15:52:00,44.8,39.9,30.37,SW,221,3.0,11.0,83,0.00,,,0.00,meteohub,2014-12-22 20:52:00,
2014-12-22 15:57:00,44.8,40.3,30.37,WSW,247,1.0,11.0,84,0.00,,,0.00,meteohub,2014-12-22 20:57:00,
2014-12-22 16:02:00,44.6,40.1,30.37,SW,236,5.0,11.0,84,0.00,,,0.00,meteohub,2014-12-22 21:02:00,
2014-12-22 16:07:00,44.4,39.9,30.36,SSE,154,1.0,11.0,84,0.00,,,0.00,meteohub,2014-12-22 21:07:00,
2014-12-22 16:12:00,44.4,39.9,30.36,SSW,211,4.0,9.0,84,0.00,,,0.00,meteohub,2014-12-22 21:12:00,
2014-12-22 16:17:00,44.4,40.3,30.36,WSW,248,0.0,9.0,85,0.00,,,0.00,meteohub,2014-12-22 21:17:00,
2014-12-22 16:22:00,44.2,40.1,30.36,SW,226,5.0,8.0,85,0.00,,,0.00,meteohub,2014-12-22 21:22:00,
2014-12-22 16:27:00,44.2,40.1,30.36,WSW,256,2.0,8.0,85,0.00,,,0.00,meteohub,2014-12-22 21:27:00,
2014-12-22 16:32:00,44.2,40.1,30.36,NNE,26,1.0,5.0,85,0.00,,,0.00,meteohub,2014-12-22 21:32:00,